createdAt,value
2019-05-10T00:00:11.759Z,96.70
2019-05-10T00:03:19.576Z,97.30
2019-05-10T00:06:06.223Z,97.00
2019-05-10T00:08:46.304Z,97.30
2019-05-10T00:11:28.043Z,97.10
2019-05-10T00:14:04.442Z,97.60
2019-05-10T00:16:33.321Z,97.20
2019-05-10T00:19:02.329Z,97.60
2019-05-10T00:21:31.222Z,97.50
2019-05-10T00:24:00.088Z,98.10
2019-05-10T00:26:29.145Z,97.50
2019-05-10T00:28:58.020Z,98.10
2019-05-10T00:31:27.776Z,97.80
2019-05-10T00:33:56.700Z,98.10
2019-05-10T00:36:25.611Z,98.20
2019-05-10T00:38:54.534Z,98.60
2019-05-10T00:41:23.389Z,97.90
2019-05-10T00:43:52.296Z,98.30
2019-05-10T00:46:21.164Z,98.00
2019-05-10T00:48:50.014Z,97.60
2019-05-10T00:51:18.934Z,97.20
2019-05-10T00:53:47.797Z,97.50
2019-05-10T00:56:16.623Z,97.40
2019-05-10T00:58:45.673Z,97.50
2019-05-10T01:01:18.434Z,97.60
2019-05-10T01:03:45.039Z,98.10
2019-05-10T01:06:13.992Z,97.60
2019-05-10T01:08:42.856Z,98.50
2019-05-10T01:11:11.734Z,98.40
2019-05-10T01:13:40.636Z,97.30
2019-05-10T01:16:09.506Z,97.90
2019-05-10T01:18:38.408Z,98.10
2019-05-10T01:21:07.366Z,97.90
2019-05-10T01:23:36.244Z,98.40
2019-05-10T01:26:05.097Z,98.80
2019-05-10T01:28:34.049Z,98.50
2019-05-10T01:31:03.302Z,97.80
2019-05-10T01:33:32.162Z,97.90
2019-05-10T01:36:01.032Z,97.60
2019-05-10T01:38:29.886Z,97.40
2019-05-10T01:40:58.758Z,97.20
2019-05-10T01:43:27.716Z,97.60
2019-05-10T01:45:56.572Z,97.70
2019-05-10T01:48:25.444Z,98.10
2019-05-10T01:50:54.381Z,98.00
2019-05-10T01:53:23.240Z,98.70
2019-05-10T01:55:53.051Z,98.70
2019-05-10T01:58:22.099Z,99.00
2019-05-10T02:00:51.004Z,98.90
2019-05-10T02:03:19.909Z,98.90
2019-05-10T02:05:48.836Z,97.80
2019-05-10T02:08:17.753Z,98.30
2019-05-10T02:10:46.604Z,98.40
2019-05-10T02:13:15.495Z,98.40
2019-05-10T02:15:44.373Z,97.80
2019-05-10T02:18:13.229Z,98.10
2019-05-10T02:20:42.106Z,98.30
2019-05-10T02:23:10.987Z,98.10
2019-05-10T02:25:39.823Z,97.80
2019-05-10T02:28:08.761Z,97.60
2019-05-10T02:30:37.672Z,97.90
2019-05-10T02:33:06.560Z,98.50
2019-05-10T02:35:35.578Z,98.50
2019-05-10T02:38:04.448Z,98.90
2019-05-10T02:40:33.284Z,99.20
2019-05-10T02:43:02.207Z,99.20
2019-05-10T02:45:31.055Z,98.80
2019-05-10T02:48:00.203Z,98.80
2019-05-10T02:50:29.099Z,98.60
2019-05-10T02:52:58.054Z,98.50
2019-05-10T02:55:27.443Z,98.20
2019-05-10T02:57:57.044Z,98.40
2019-05-10T03:00:26.702Z,98.20
2019-05-10T03:02:56.111Z,98.40
2019-05-10T03:05:27.510Z,99.10
2019-05-10T03:07:58.483Z,98.80
2019-05-10T03:10:30.284Z,99.00
2019-05-10T03:13:01.807Z,99.30
2019-05-10T03:15:52.240Z,98.30
2019-05-10T03:18:23.631Z,98.60
2019-05-10T03:20:55.430Z,97.90
2019-05-10T03:23:26.260Z,98.60
2019-05-10T03:26:14.382Z,98.70
2019-05-10T03:28:43.391Z,97.90
2019-05-10T03:31:12.593Z,98.00
2019-05-10T03:33:41.795Z,98.00
2019-05-10T03:36:10.781Z,98.50
2019-05-10T03:38:39.749Z,98.10
2019-05-10T03:41:08.770Z,98.60
2019-05-10T03:43:37.605Z,98.60
2019-05-10T03:46:06.714Z,98.60
2019-05-10T03:48:35.622Z,98.60
2019-05-10T03:51:04.491Z,98.30
2019-05-10T03:53:33.335Z,98.20
2019-05-10T03:56:02.249Z,98.50
2019-05-10T03:58:31.119Z,98.40
2019-05-10T04:00:59.979Z,98.10
2019-05-10T04:03:28.846Z,98.40
2019-05-10T04:05:57.705Z,98.40
2019-05-10T04:08:26.568Z,97.60
2019-05-10T04:10:55.473Z,98.30
2019-05-10T04:13:24.381Z,98.90
2019-05-10T04:15:54.774Z,99.40
2019-05-10T04:18:23.698Z,99.60
2019-05-10T04:20:52.617Z,99.40
2019-05-10T04:23:21.486Z,99.70
2019-05-10T04:25:50.409Z,99.50
2019-05-10T04:28:19.297Z,99.80
2019-05-10T04:30:48.274Z,99.10
2019-05-10T04:33:17.119Z,99.20
2019-05-10T04:35:45.983Z,99.60
2019-05-10T04:38:14.845Z,99.40
2019-05-10T04:40:43.716Z,99.40
2019-05-10T04:43:12.656Z,99.70
2019-05-10T04:45:41.562Z,99.50
2019-05-10T04:48:10.431Z,99.50
2019-05-10T04:50:39.341Z,98.80
2019-05-10T04:53:08.231Z,99.40
2019-05-10T04:55:37.162Z,99.30
2019-05-10T04:58:06.491Z,98.70
2019-05-10T05:00:35.385Z,98.90
2019-05-10T05:03:04.266Z,99.20
2019-05-10T05:05:33.156Z,99.50
2019-05-10T05:08:02.031Z,99.40
2019-05-10T05:10:30.853Z,99.70
2019-05-10T05:12:59.764Z,99.60
2019-05-10T05:15:28.618Z,99.70
2019-05-10T05:17:57.517Z,99.60
2019-05-10T05:20:26.425Z,98.80
2019-05-10T05:22:55.311Z,99.30
2019-05-10T05:25:24.181Z,98.90
2019-05-10T05:28:06.577Z,99.40
2019-05-10T05:30:24.586Z,99.90
2019-05-10T05:32:56.768Z,99.70
2019-05-10T05:35:23.979Z,99.50
2019-05-10T05:37:52.913Z,99.20
2019-05-10T05:40:21.828Z,99.10
2019-05-10T05:42:50.687Z,99.10
2019-05-10T05:45:19.689Z,99.20
2019-05-10T05:47:48.727Z,99.20
2019-05-10T05:50:17.632Z,98.90
2019-05-10T05:52:46.570Z,98.90
2019-05-10T05:55:15.443Z,98.70
2019-05-10T05:57:44.313Z,98.90
2019-05-10T06:00:14.712Z,99.10
2019-05-10T06:02:44.953Z,99.30
2019-05-10T06:05:32.695Z,99.40
2019-05-10T06:07:44.645Z,98.80
2019-05-10T06:10:17.066Z,98.50
2019-05-10T06:12:44.447Z,98.50
2019-05-10T06:15:15.000Z,98.10
2019-05-10T06:17:43.839Z,97.80
2019-05-10T06:20:12.939Z,98.30
2019-05-10T06:22:43.806Z,98.00
2019-05-10T06:25:12.579Z,98.40
2019-05-10T06:27:43.244Z,98.00
2019-05-10T06:30:12.203Z,98.00
2019-05-10T06:32:41.324Z,98.00
2019-05-10T06:35:14.137Z,97.90
2019-05-10T06:37:40.889Z,97.90
2019-05-10T06:40:09.865Z,97.80
2019-05-10T06:42:38.702Z,97.80
2019-05-10T06:45:14.512Z,97.90
2019-05-10T06:47:41.998Z,97.60
2019-05-10T06:50:09.724Z,97.70
2019-05-10T06:52:38.643Z,97.70
2019-05-10T06:55:08.113Z,97.70
2019-05-10T06:57:37.062Z,97.60
2019-05-10T07:00:09.509Z,97.80
2019-05-10T07:02:38.416Z,97.70
2019-05-10T07:05:07.408Z,97.90
2019-05-10T07:07:44.021Z,97.90
2019-05-10T07:10:18.275Z,97.80
2019-05-10T07:12:40.403Z,97.80
2019-05-10T07:15:10.925Z,97.90
2019-05-10T07:17:43.675Z,97.80
2019-05-10T07:20:10.392Z,97.80
2019-05-10T07:22:39.273Z,97.60
2019-05-10T07:25:08.403Z,97.50
2019-05-10T07:27:38.691Z,97.50
2019-05-10T07:30:08.087Z,97.60
2019-05-10T07:32:37.013Z,96.90
2019-05-10T07:35:06.908Z,96.30
2019-05-10T07:37:36.240Z,95.90
2019-05-10T07:40:08.359Z,95.90
2019-05-10T07:42:43.194Z,95.70
2019-05-10T07:45:08.083Z,95.60
2019-05-10T07:47:36.946Z,95.00
2019-05-10T07:50:09.569Z,94.70
2019-05-10T07:52:43.408Z,93.80
2019-05-10T07:55:10.635Z,93.40
2019-05-10T07:57:39.664Z,94.20
2019-05-10T08:00:09.431Z,93.30
2019-05-10T08:02:38.345Z,90.30
2019-05-10T08:05:10.800Z,80.70
2019-05-10T08:07:38.884Z,79.80
2019-05-10T08:10:08.696Z,83.70
2019-05-10T08:12:41.391Z,83.80
2019-05-10T08:15:09.296Z,84.00
2019-05-10T08:17:43.120Z,85.20
2019-05-10T08:20:16.289Z,87.60
2019-05-10T08:22:44.891Z,86.90
2019-05-10T08:25:12.766Z,78.10
2019-05-10T08:27:44.023Z,76.60
2019-05-10T08:30:22.585Z,69.40
2019-05-10T08:32:42.685Z,72.40
2019-05-10T08:35:17.175Z,63.00
2019-05-10T08:37:43.277Z,66.00
2019-05-10T08:40:12.906Z,67.50
2019-05-10T08:42:48.587Z,71.20
2019-05-10T08:45:12.684Z,70.80
2019-05-10T08:47:42.730Z,69.60
2019-05-10T08:50:29.189Z,77.50
2019-05-10T08:52:42.637Z,68.40
2019-05-10T08:55:12.381Z,70.70
2019-05-10T08:57:47.343Z,62.30
2019-05-10T09:00:13.263Z,58.00
2019-05-10T09:02:42.816Z,60.40
2019-05-10T09:05:12.485Z,59.50
2019-05-10T09:07:42.940Z,62.30
2019-05-10T09:10:12.932Z,52.20
2019-05-10T09:12:51.148Z,58.40
2019-05-10T09:15:13.725Z,61.20
2019-05-10T09:17:43.167Z,60.80
2019-05-10T09:20:20.858Z,59.60
2019-05-10T09:22:43.853Z,62.20
2019-05-10T09:25:13.569Z,64.80
2019-05-10T09:27:43.133Z,66.60
2019-05-10T09:30:16.161Z,66.20
2019-05-10T09:32:43.899Z,63.10
2019-05-10T09:35:13.125Z,59.70
2019-05-10T09:37:42.371Z,63.70
2019-05-10T09:40:13.450Z,60.80
2019-05-10T09:42:43.494Z,64.60
2019-05-10T09:45:13.249Z,65.50
2019-05-10T09:47:43.487Z,67.70
2019-05-10T09:50:12.935Z,63.90
2019-05-10T09:52:41.848Z,64.70
2019-05-10T09:55:14.810Z,63.00
2019-05-10T09:57:41.688Z,57.00
2019-05-10T10:00:11.396Z,55.20
2019-05-10T10:02:46.589Z,51.20
2019-05-10T10:05:11.751Z,56.30
2019-05-10T10:07:40.693Z,52.10
2019-05-10T10:10:12.874Z,60.20
2019-05-10T10:12:40.678Z,58.00
2019-05-10T10:15:13.678Z,59.70
2019-05-10T10:17:42.309Z,59.70
2019-05-10T10:20:10.882Z,58.70
2019-05-10T10:22:43.404Z,56.20
2019-05-10T10:25:10.959Z,59.30
2019-05-10T10:27:39.923Z,59.00
2019-05-10T10:30:12.679Z,58.20
2019-05-10T10:32:40.584Z,54.30
2019-05-10T10:35:13.197Z,52.40
2019-05-10T10:37:40.161Z,55.80
2019-05-10T10:40:10.092Z,55.40
2019-05-10T10:42:38.964Z,48.50
2019-05-10T10:45:09.593Z,53.10
2019-05-10T10:47:38.563Z,45.80
2019-05-10T10:50:13.461Z,45.50
2019-05-10T10:52:41.901Z,46.50
2019-05-10T10:55:13.321Z,46.50
2019-05-10T10:57:41.751Z,50.60
2019-05-10T11:00:11.623Z,45.70
2019-05-10T11:02:41.608Z,47.90
2019-05-10T11:05:11.317Z,43.40
2019-05-10T11:07:44.272Z,44.50
2019-05-10T11:10:18.681Z,40.00
2019-05-10T11:12:41.783Z,41.30
2019-05-10T11:15:11.414Z,40.10
2019-05-10T11:17:40.990Z,39.90
2019-05-10T11:20:11.485Z,38.20
2019-05-10T11:22:48.638Z,37.50
2019-05-10T11:25:12.972Z,37.60
2019-05-10T11:27:41.974Z,44.20
2019-05-10T11:30:12.265Z,37.70
2019-05-10T11:32:41.965Z,40.30
2019-05-10T11:35:11.888Z,48.70
2019-05-10T11:37:45.370Z,41.00
2019-05-10T11:40:17.445Z,43.60
2019-05-10T11:42:47.273Z,47.50
2019-05-10T11:45:14.449Z,50.00
2019-05-10T11:47:47.707Z,48.40
2019-05-10T11:50:27.600Z,50.70
2019-05-10T11:52:44.916Z,51.30
2019-05-10T11:55:13.792Z,50.70
2019-05-10T11:57:44.170Z,51.70
2019-05-10T12:00:28.016Z,53.80
2019-05-10T12:03:03.215Z,52.90
2019-05-10T12:05:20.492Z,54.10
2019-05-10T12:07:48.114Z,53.30
2019-05-10T12:10:21.022Z,52.90
2019-05-10T12:13:01.878Z,52.60
2019-05-10T12:15:24.700Z,54.70
2019-05-10T12:20:26.853Z,56.90
2019-05-10T12:22:51.747Z,56.50
2019-05-10T12:25:41.575Z,57.80
2019-05-10T12:26:27.770Z,56.10
2019-05-10T12:28:01.245Z,65.20
2019-05-10T12:30:35.048Z,64.60
2019-05-10T12:33:07.940Z,66.50
2019-05-10T12:35:39.929Z,68.40
2019-05-10T12:38:02.505Z,68.00
2019-05-10T12:40:31.568Z,66.80
2019-05-10T12:43:00.746Z,68.30
2019-05-10T12:45:31.430Z,70.10
2019-05-10T12:48:01.272Z,70.50
2019-05-10T12:50:30.392Z,66.60
2019-05-10T12:53:12.656Z,62.30
2019-05-10T12:55:29.865Z,61.20
2019-05-10T12:57:59.098Z,58.80
2019-05-10T13:00:27.924Z,59.80
2019-05-10T13:03:11.645Z,63.10
2019-05-10T13:05:32.326Z,60.20
2019-05-10T13:07:57.971Z,64.80
2019-05-10T13:10:26.979Z,63.40
2019-05-10T13:12:55.953Z,64.50
2019-05-10T13:15:31.055Z,61.90
2019-05-10T13:17:55.348Z,64.10
2019-05-10T13:20:24.395Z,64.80
2019-05-10T13:22:53.272Z,63.10
2019-05-10T13:25:22.151Z,66.30
2019-05-10T13:27:51.059Z,67.50
2019-05-10T13:30:27.069Z,65.60
2019-05-10T13:32:52.935Z,67.20
2019-05-10T13:35:21.498Z,66.20
2019-05-10T13:37:50.387Z,67.10
2019-05-10T13:40:19.321Z,66.40
2019-05-10T13:42:48.254Z,65.70
2019-05-10T13:45:17.209Z,65.50
2019-05-10T13:47:46.103Z,62.70
2019-05-10T13:50:16.492Z,62.20
2019-05-10T13:52:45.363Z,63.10
2019-05-10T13:55:14.295Z,65.40
2019-05-10T13:57:43.155Z,64.80
2019-05-10T14:00:12.620Z,64.90
2019-05-10T14:02:41.523Z,64.10
2019-05-10T14:05:11.847Z,66.10
2019-05-10T14:07:49.699Z,64.60
2019-05-10T14:10:11.672Z,65.70
2019-05-10T14:12:40.549Z,65.70
2019-05-10T14:15:13.332Z,65.50
2019-05-10T14:17:40.284Z,66.10
2019-05-10T14:20:19.748Z,67.20
2019-05-10T14:22:40.321Z,67.00
2019-05-10T14:25:09.868Z,68.40
2019-05-10T14:27:38.805Z,68.40
2019-05-10T14:30:13.582Z,68.70
2019-05-10T14:32:39.861Z,68.30
2019-05-10T14:35:08.897Z,68.40
2019-05-10T14:37:37.770Z,70.10
2019-05-10T14:40:07.508Z,70.70
2019-05-10T14:42:36.382Z,68.70
2019-05-10T14:45:06.227Z,69.30
2019-05-10T14:47:46.323Z,69.30
2019-05-10T14:50:06.591Z,71.90
2019-05-10T14:52:35.466Z,71.70
2019-05-10T14:55:08.196Z,64.90
2019-05-10T14:57:37.087Z,68.60
2019-05-10T15:00:09.166Z,64.90
2019-05-10T15:02:38.059Z,61.40
2019-05-10T15:05:15.171Z,62.20
2019-05-10T15:07:37.865Z,60.00
2019-05-10T15:10:07.129Z,59.50
2019-05-10T15:12:36.019Z,57.60
2019-05-10T15:15:05.774Z,59.00
2019-05-10T15:17:34.698Z,58.80
2019-05-10T15:20:05.491Z,59.30
2019-05-10T15:22:34.370Z,58.40
2019-05-10T15:25:03.290Z,62.90
2019-05-10T15:27:32.154Z,63.60
2019-05-10T15:30:05.017Z,62.30
2019-05-10T15:32:31.587Z,64.30
2019-05-10T15:35:07.146Z,63.40
2019-05-10T15:37:30.979Z,63.90
2019-05-10T15:40:00.614Z,63.70
2019-05-10T15:42:35.591Z,65.80
2019-05-10T15:45:05.236Z,66.20
2019-05-10T15:47:31.531Z,65.30
2019-05-10T15:50:01.565Z,67.10
2019-05-10T15:52:30.788Z,65.70
2019-05-10T15:54:59.620Z,67.70
2019-05-10T15:57:32.273Z,68.60
2019-05-10T15:59:59.266Z,67.60
2019-05-10T16:02:28.256Z,67.50
2019-05-10T16:04:57.135Z,68.40
2019-05-10T16:07:26.047Z,68.30
2019-05-10T16:09:56.210Z,68.40
2019-05-10T16:12:25.234Z,68.00
2019-05-10T16:14:54.188Z,69.10
2019-05-10T16:17:23.935Z,69.50
2019-05-10T16:19:59.754Z,69.90
2019-05-10T16:22:25.369Z,68.50
2019-05-10T16:25:00.830Z,68.30
2019-05-10T16:27:24.713Z,68.30
2019-05-10T16:29:53.629Z,74.50
2019-05-10T16:32:22.495Z,77.50
2019-05-10T16:34:51.354Z,80.10
2019-05-10T16:37:20.467Z,81.90
2019-05-10T16:39:52.851Z,83.30
2019-05-10T16:42:21.808Z,85.80
2019-05-10T16:44:51.334Z,87.30
2019-05-10T16:47:20.337Z,87.60
2019-05-10T16:49:53.471Z,90.00
2019-05-10T16:52:26.101Z,90.00
2019-05-10T16:54:50.327Z,90.50
2019-05-10T16:57:21.493Z,91.60
2019-05-10T16:59:50.403Z,91.40
2019-05-10T17:02:19.310Z,92.00
2019-05-10T17:04:48.356Z,91.60
2019-05-10T17:07:18.819Z,91.80
2019-05-10T17:09:49.414Z,92.60
2019-05-10T17:12:22.034Z,92.90
2019-05-10T17:14:50.447Z,93.10
2019-05-10T17:17:19.460Z,94.00
2019-05-10T17:19:48.671Z,93.20
2019-05-10T17:22:19.047Z,93.40
2019-05-10T17:24:47.949Z,93.00
2019-05-10T17:27:17.016Z,93.00
2019-05-10T17:29:49.768Z,94.00
2019-05-10T17:32:18.758Z,93.60
2019-05-10T17:34:47.367Z,94.10
2019-05-10T17:37:17.765Z,94.40
2019-05-10T17:39:53.684Z,94.80
2019-05-10T17:42:23.394Z,94.80
2019-05-10T17:44:55.086Z,94.50
2019-05-10T17:47:27.194Z,93.90
2019-05-10T17:49:54.176Z,94.20
2019-05-10T17:52:23.120Z,94.30
2019-05-10T17:54:57.115Z,94.60
2019-05-10T17:57:26.081Z,94.40
2019-05-10T17:59:54.945Z,94.70
2019-05-10T18:02:23.825Z,94.30
2019-05-10T18:04:53.146Z,94.90
2019-05-10T18:07:22.088Z,95.00
2019-05-10T18:09:50.921Z,95.00
2019-05-10T18:12:20.319Z,95.00
2019-05-10T18:14:55.648Z,95.10
2019-05-10T18:17:26.013Z,95.40
2019-05-10T18:19:56.485Z,96.10
2019-05-10T18:22:22.808Z,95.40
2019-05-10T18:24:51.663Z,95.80
2019-05-10T18:27:20.953Z,95.50
2019-05-10T18:29:49.824Z,95.70
2019-05-10T18:32:18.989Z,95.80
2019-05-10T18:34:48.064Z,95.30
2019-05-10T18:37:21.852Z,95.50
2019-05-10T18:39:52.834Z,96.10
2019-05-10T18:42:25.271Z,95.90
2019-05-10T18:44:55.702Z,97.00
2019-05-10T18:47:24.596Z,96.40
2019-05-10T18:49:53.443Z,97.00
2019-05-10T18:52:22.334Z,97.10
2019-05-10T18:55:00.830Z,97.00
2019-05-10T18:57:29.773Z,97.50
2019-05-10T18:59:58.641Z,97.20
2019-05-10T19:02:27.545Z,97.80
2019-05-10T19:04:56.787Z,97.40
2019-05-10T19:07:26.005Z,97.40
2019-05-10T19:09:55.126Z,97.60
2019-05-10T19:12:24.849Z,97.70
2019-05-10T19:14:54.300Z,97.80
2019-05-10T19:17:23.194Z,98.00
2019-05-10T19:19:52.385Z,97.70
2019-05-10T19:22:21.951Z,98.00
2019-05-10T19:24:51.681Z,98.00
2019-05-10T19:27:25.052Z,98.50
2019-05-10T19:29:52.862Z,98.30
2019-05-10T19:32:21.695Z,98.20
2019-05-10T19:34:57.151Z,98.40
2019-05-10T19:37:31.527Z,98.40
2019-05-10T19:39:51.757Z,98.80
2019-05-10T19:42:23.659Z,99.20
2019-05-10T19:44:54.245Z,99.00
2019-05-10T19:47:38.958Z,99.10
2019-05-10T19:50:12.693Z,99.10
2019-05-10T19:52:47.452Z,99.10
2019-05-10T19:55:21.708Z,99.20
2019-05-10T19:57:54.914Z,99.00
2019-05-10T20:00:22.404Z,99.00
2019-05-10T20:02:51.505Z,98.90
2019-05-10T20:05:20.508Z,99.30
2019-05-10T20:07:54.310Z,99.20
2019-05-10T20:10:22.001Z,99.10
2019-05-10T20:12:50.992Z,99.20
2019-05-10T20:15:21.563Z,99.10
2019-05-10T20:17:50.489Z,99.30
2019-05-10T20:20:19.472Z,99.30
2019-05-10T20:22:48.401Z,99.30
2019-05-10T20:25:17.746Z,99.50
2019-05-10T20:27:46.750Z,99.50
2019-05-10T20:30:15.951Z,99.60
2019-05-10T20:32:45.021Z,99.70
2019-05-10T20:35:14.141Z,99.90
2019-05-10T20:37:43.058Z,99.80
2019-05-10T20:40:12.502Z,99.70
2019-05-10T20:42:41.367Z,99.50
2019-05-10T20:45:10.906Z,99.60
2019-05-10T20:47:39.856Z,99.70
2019-05-10T20:50:10.002Z,99.80
2019-05-10T20:52:39.064Z,99.80
2019-05-10T20:55:08.242Z,99.90
2019-05-10T20:57:37.133Z,99.90
2019-05-10T21:00:10.040Z,99.80
2019-05-10T21:02:38.974Z,99.90
2019-05-10T21:05:07.966Z,99.70
2019-05-10T21:07:36.945Z,99.90
2019-05-10T21:10:07.311Z,99.80
2019-05-10T21:12:55.396Z,99.90
2019-05-10T21:15:25.512Z,99.90
2019-05-10T21:17:58.702Z,99.90
2019-05-10T21:20:29.143Z,99.90
2019-05-10T21:22:58.443Z,99.90
2019-05-10T21:25:28.039Z,99.80
2019-05-10T21:27:57.206Z,99.90
2019-05-10T21:30:41.973Z,99.90
2019-05-10T21:32:58.362Z,99.90
2019-05-10T21:35:27.469Z,99.80
2019-05-10T21:37:58.636Z,99.90
2019-05-10T21:40:27.691Z,99.90
2019-05-10T21:42:56.652Z,99.90
2019-05-10T21:45:26.511Z,99.90
2019-05-10T21:47:59.253Z,99.90
2019-05-10T21:50:35.402Z,99.90
2019-05-10T21:53:04.392Z,99.90
2019-05-10T21:55:33.966Z,99.90
2019-05-10T21:58:07.810Z,99.90
2019-05-10T22:00:41.917Z,99.90
2019-05-10T22:03:13.564Z,99.90
2019-05-10T22:05:49.805Z,99.90
2019-05-10T22:08:18.683Z,99.90
2019-05-10T22:10:52.195Z,99.90
2019-05-10T22:13:21.183Z,99.90
2019-05-10T22:16:01.691Z,99.90
2019-05-10T22:18:31.085Z,99.90
2019-05-10T22:21:00.233Z,99.90
2019-05-10T22:23:30.099Z,99.90
2019-05-10T22:25:59.015Z,99.90
2019-05-10T22:28:28.024Z,99.90
2019-05-10T22:31:08.235Z,99.90
2019-05-10T22:33:38.113Z,99.90
2019-05-10T22:36:13.402Z,99.90
2019-05-10T22:38:44.182Z,99.90
2019-05-10T22:41:13.210Z,99.90
2019-05-10T22:43:42.134Z,99.90
2019-05-10T22:46:11.170Z,99.90
2019-05-10T22:48:40.198Z,99.90
2019-05-10T22:51:09.088Z,99.90
2019-05-10T22:53:38.176Z,99.90
2019-05-10T22:56:07.105Z,99.90
2019-05-10T22:58:36.117Z,99.90
2019-05-10T23:01:05.055Z,99.90
2019-05-10T23:03:33.981Z,99.90
2019-05-10T23:06:02.968Z,99.90
2019-05-10T23:08:33.361Z,99.90
2019-05-10T23:11:02.528Z,99.90
2019-05-10T23:13:31.833Z,99.90
2019-05-10T23:16:03.068Z,99.90
2019-05-10T23:18:35.191Z,99.90
2019-05-10T23:21:04.120Z,99.90
2019-05-10T23:23:33.106Z,99.90
2019-05-10T23:26:02.053Z,99.90
2019-05-10T23:28:34.332Z,99.90
2019-05-10T23:31:03.273Z,99.90
2019-05-10T23:33:32.267Z,99.90
2019-05-10T23:36:01.125Z,99.90
2019-05-10T23:38:30.083Z,99.90
2019-05-10T23:40:59.126Z,99.90
2019-05-10T23:43:28.023Z,99.90
2019-05-10T23:45:56.898Z,99.90
2019-05-10T23:48:25.809Z,99.90
2019-05-10T23:50:54.764Z,99.90
2019-05-10T23:53:23.673Z,99.90
2019-05-10T23:55:52.668Z,99.90
2019-05-10T23:58:21.554Z,99.90
